Latest Weather Observations for Edithburgh

IDS60801

Issued at 3:01 pm CDT Tuesday 17 January 2017 (issued every 30 minutes, with the page automatically refreshed every 10 minutes)

About weather observations | Map of weather stations | Latest weather observations for SA | Other Formats
Station Details ID: 022046 Name: EDITHBURGH Lat: -35.11 Lon: 137.74 Height: 6.0 m
Data from the previous 72 hours. | See also: Recent months at Edithburgh
Date/Time
CDT
Temp
°C
App
Temp
°C
Dew
Point
°C
Rel
Hum
%
Delta-T
°C
Wind Press
QNH
hPa
Press
MSL
hPa
Rain since
9am
mm
Dir  Spd
km/h
Gust
km/h
Spd
kts
Gust
kts
17/03:00pm 31.8 29.7 15.1 36 10.3 S 20 30 11 16 1005.7 1005.7 0.0
17/02:39pm 34.0 29.9 13.7 29 12.4 W 28 39 15 21 1005.5 1005.5 0.0
17/02:30pm 40.7 32.4 -4.7 5 21.7 WNW 30 43 16 23 1005.1 1005.1 0.0
17/02:00pm 40.2 32.2 -6.2 5 21.5 NW 28 39 15 21 1005.3 1005.3 0.0
17/01:30pm 40.5 32.0 -7.1 5 21.9 WNW 30 39 16 21 1005.5 1005.5 0.0
17/01:00pm 39.7 30.7 -6.3 5 21.2 NW 33 46 18 25 1005.8 1005.8 0.0
17/12:30pm 40.3 31.3 -8.1 4 21.9 NW 32 41 17 22 1006.1 1006.1 0.0
17/12:00pm 39.2 29.8 -6.4 5 21.0 NW 35 48 19 26 1006.3 1006.3 0.0
17/11:30am 39.3 30.6 -5.3 6 20.9 NNW 32 41 17 22 1006.6 1006.6 0.0
17/11:08am 37.5 32.6 -0.7 9 18.9 NNE 15 35 8 19 1006.9 1006.9 0.0
17/11:00am 29.9 30.1 17.7 48 7.8 NE 13 19 7 10 1007.0 1007.0 0.0
17/10:30am 27.2 28.2 19.5 62 5.0 NE 13 17 7 9 1007.0 1007.0 0.0
17/10:00am 27.1 28.8 20.2 66 4.5 NNE 11 19 6 10 1007.1 1007.1 0.0
17/09:30am 26.4 27.1 18.9 63 4.8 NNE 13 20 7 11 1006.9 1006.9 0.0
17/09:00am 26.2 27.2 18.7 63 4.8 NNE 11 20 6 11 1007.0 1007.0 0.0
17/08:30am 25.8 26.9 17.9 61 5.0 NNE 9 15 5 8 1007.0 1007.0 0.0
17/08:00am 23.5 24.9 17.7 70 3.6 NNE 7 11 4 6 1006.9 1006.9 0.0
17/07:30am 23.1 24.8 18.0 73 3.2 NNE 6 9 3 5 1007.0 1007.0 0.0
17/07:00am 22.0 24.8 19.7 87 1.5 NNE 4 7 2 4 1007.0 1007.0 0.0
17/06:30am 22.1 24.3 19.1 83 1.9 NNE 6 7 3 4 1006.7 1006.7 0.0
17/06:00am 20.5 21.9 17.9 85 1.6 NE 7 9 4 5 1006.5 1006.5 0.0
17/05:30am 19.7 21.0 17.2 85 1.5 ENE 6 9 3 5 1006.6 1006.6 0.0
17/05:00am 19.8 20.9 17.2 85 1.6 NNE 7 9 4 5 1006.3 1006.3 0.0
17/04:30am 17.7 19.2 15.8 89 1.1 NNE 2 4 1 2 1006.5 1006.5 0.0
17/04:00am 18.9 19.6 15.5 80 2.0 ENE 6 6 3 3 1006.6 1006.6 0.0
17/03:30am 19.4 21.9 17.3 88 1.3 CALM 0 0 0 0 1007.0 1007.0 0.0
17/03:00am 20.7 22.8 18.1 85 1.6 NE 4 6 2 3 1007.4 1007.4 0.0
17/02:30am 20.5 21.9 18.6 89 1.2 ENE 9 11 5 6 1007.8 1007.8 0.0
17/02:00am 20.5 21.9 16.5 78 2.4 SSE 4 6 2 3 1007.9 1007.9 0.0
17/01:30am 19.7 19.7 15.1 75 2.7 SSW 9 11 5 6 1007.9 1007.9 0.0
17/01:00am 18.4 16.9 11.9 66 3.6 SSW 11 15 6 8 1008.2 1008.2 0.0
17/12:30am 20.5 21.2 12.1 58 4.7 CALM 0 0 0 0 1008.4 1008.4 0.0
17/12:00am 21.8 22.1 10.9 50 6.0 CALM 0 0 0 0 1008.7 1008.7 0.0
 
Date/Time
CDT
Temp
°C
App
Temp
°C
Dew
Point
°C
Rel
Hum
%
Delta-T
°C
Wind Press
QNH
hPa
Press
MSL
hPa
Rain since
9am
mm
Dir  Spd
km/h
Gust
km/h
Spd
kts
Gust
kts
16/11:30pm 21.8 21.5 11.6 52 5.7 SE 4 4 2 2 1008.8 1008.8 0.0
16/11:00pm 23.6 24.0 12.6 50 6.3 SE 2 4 1 2 1009.0 1009.0 0.0
16/10:30pm 23.2 23.2 12.5 51 6.1 SSE 4 6 2 3 1009.2 1009.2 0.0
16/10:00pm 23.9 24.7 13.6 52 6.0 SE 2 2 1 1 1009.4 1009.4 0.0
16/09:30pm 24.6 25.5 13.9 51 6.3 SSE 2 4 1 2 1009.3 1009.3 0.0
16/09:00pm 24.4 25.2 14.9 55 5.7 S 4 6 2 3 1009.3 1009.3 0.0
16/08:30pm 25.5 25.8 15.0 52 6.3 SSE 7 11 4 6 1009.1 1009.1 0.0
16/08:00pm 28.2 26.2 10.0 32 10.2 E 11 13 6 7 1008.8 1008.8 0.0
16/07:30pm 29.7 26.3 7.6 25 12.0 E 15 20 8 11 1008.5 1008.5 0.0
16/07:00pm 28.1 25.0 8.8 29 10.6 ESE 15 19 8 10 1008.6 1008.6 0.0
16/06:30pm 30.1 26.4 8.0 25 12.1 E 17 22 9 12 1008.7 1008.7 0.0
16/06:00pm 29.8 26.4 9.2 27 11.5 E 17 22 9 12 1008.6 1008.6 0.0
16/05:30pm 29.4 26.9 12.3 34 10.0 E 17 20 9 11 1008.9 1008.9 0.0
16/05:00pm 30.4 27.1 9.4 27 11.8 ENE 17 20 9 11 1009.3 1009.3 0.0
16/04:30pm 27.8 26.2 13.9 42 8.3 E 15 20 8 11 1009.5 1009.5 0.0
16/04:00pm 27.8 26.2 13.9 42 8.3 E 15 20 8 11 1009.6 1009.6 0.0
16/03:30pm 28.6 28.1 15.8 45 7.9 E 13 17 7 9 1009.9 1009.9 0.0
16/03:00pm 28.4 26.9 13.2 39 9.0 ENE 13 17 7 9 1010.2 1010.2 0.0
16/02:30pm 28.1 26.9 14.1 42 8.4 E 13 17 7 9 1010.6 1010.6 0.0
16/02:00pm 26.7 25.3 15.5 50 6.8 NE 17 20 9 11 1011.0 1011.0 0.0
16/01:30pm 24.9 23.1 16.0 57 5.4 NE 20 24 11 13 1011.1 1011.1 0.0
16/01:00pm 25.7 23.8 16.6 57 5.6 NE 22 26 12 14 1011.2 1011.2 0.0
16/12:30pm 24.6 22.7 15.7 57 5.4 ENE 20 24 11 13 1011.6 1011.6 0.0
16/12:00pm 24.7 23.2 16.2 59 5.2 ENE 19 24 10 13 1011.8 1011.8 0.0
16/11:30am 24.3 22.3 15.5 58 5.3 ENE 20 24 11 13 1012.0 1012.0 0.0
16/11:00am 24.6 22.8 16.1 59 5.2 NE 20 24 11 13 1012.3 1012.3 0.0
16/10:30am 23.9 22.6 15.8 60 4.9 NE 17 22 9 12 1012.7 1012.7 0.0
16/10:00am 23.5 22.2 15.7 61 4.7 NE 17 22 9 12 1012.9 1012.9 0.0
16/09:30am 23.3 22.2 15.3 60 4.8 NNE 15 20 8 11 1013.1 1013.1 0.0
16/09:00am 23.6 22.5 15.2 59 5.0 NNE 15 22 8 12 1013.2 1013.2 0.0
16/08:30am 23.0 21.7 14.7 59 4.9 NNE 15 22 8 12 1013.3 1013.3 0.0
16/08:00am 22.2 20.5 14.7 62 4.4 NNE 17 26 9 14 1013.2 1013.2 0.0
16/07:30am 21.4 20.5 15.9 71 3.3 NE 15 22 8 12 1012.9 1012.9 0.0
16/07:00am 19.9 19.5 15.1 74 2.8 NNE 11 17 6 9 1013.0 1013.0 0.0
16/06:30am 16.4 16.3 15.0 91 0.8 NNW 9 9 5 5 1012.9 1012.9 0.0
16/06:00am 19.1 19.8 17.1 88 1.2 NE 9 13 5 7 1012.8 1012.8 0.0
16/05:30am 18.5 19.2 16.1 86 1.4 NE 7 9 4 5 1012.7 1012.7 0.0
16/05:00am 17.3 17.4 15.6 90 1.0 E 9 11 5 6 1012.5 1012.5 0.0
16/04:30am 17.6 17.6 15.2 86 1.4 E 9 13 5 7 1012.5 1012.5 0.0
16/04:00am 18.1 17.3 15.2 83 1.7 ESE 13 17 7 9 1012.5 1012.5 0.0
16/03:30am 17.8 17.4 15.2 85 1.5 ESE 11 15 6 8 1012.7 1012.7 0.0
16/03:00am 17.8 16.8 14.5 81 1.9 ESE 13 15 7 8 1012.8 1012.8 0.0
16/02:30am 17.8 17.9 15.4 86 1.4 ESE 9 13 5 7 1013.1 1013.1 0.0
16/02:00am 17.9 17.5 15.3 85 1.5 ESE 11 13 6 7 1013.4 1013.4 0.0
16/01:30am 18.0 17.4 15.6 86 1.4 ESE 13 17 7 9 1013.8 1013.8 0.0
16/01:00am 18.1 17.0 15.4 84 1.6 ESE 15 22 8 12 1013.9 1013.9 0.0
16/12:30am 18.2 16.6 14.9 81 1.9 ESE 17 22 9 12 1014.2 1014.2 0.0
16/12:00am 18.5 16.3 14.9 79 2.1 SE 20 24 11 13 1014.4 1014.4 0.0
 
Date/Time
CDT
Temp
°C
App
Temp
°C
Dew
Point
°C
Rel
Hum
%
Delta-T
°C
Wind Press
QNH
hPa
Press
MSL
hPa
Rain since
9am
mm
Dir  Spd
km/h
Gust
km/h
Spd
kts
Gust
kts
15/11:30pm 18.5 16.1 14.3 76 2.4 SE 20 28 11 15 1014.6 1014.6 0.0
15/11:00pm 18.6 15.8 14.4 76 2.4 SE 22 30 12 16 1014.7 1014.7 0.0
15/10:30pm 18.6 15.8 14.3 76 2.5 SE 22 30 12 16 1014.8 1014.8 0.0
15/10:00pm 18.8 16.0 14.3 75 2.6 SE 22 28 12 15 1015.1 1015.1 0.0
15/09:30pm 19.2 16.7 14.0 72 3.0 SE 20 26 11 14 1015.2 1015.2 0.0
15/09:00pm 19.3 17.3 15.4 78 2.3 SSE 20 28 11 15 1015.4 1015.4 0.0
15/08:30pm 19.4 17.3 15.1 76 2.5 SSE 20 28 11 15 1015.5 1015.5 0.0
15/08:00pm 19.9 17.3 14.8 72 3.0 SSE 22 28 12 15 1015.4 1015.4 0.0
15/07:30pm 20.1 17.3 14.4 69 3.3 SSE 22 28 12 15 1015.5 1015.5 0.0
15/07:00pm 20.9 18.1 14.2 65 3.9 SSE 22 28 12 15 1015.5 1015.5 0.0
15/06:30pm 21.4 18.1 14.0 62 4.3 SSE 24 30 13 16 1015.5 1015.5 0.0
15/06:00pm 21.2 17.6 14.1 64 4.1 SSE 26 32 14 17 1015.6 1015.6 0.0
15/05:30pm 21.9 19.0 14.0 61 4.6 SSE 22 28 12 15 1016.0 1016.0 0.0
15/05:00pm 21.2 18.4 13.1 60 4.6 SSE 20 28 11 15 1016.5 1016.5 0.0
15/04:30pm 21.3 18.8 12.4 57 5.0 S 17 24 9 13 1016.8 1016.8 0.0
15/04:00pm 21.0 18.5 12.3 57 4.9 SSE 17 22 9 12 1017.1 1017.1 0.0
15/03:30pm 20.7 18.4 11.7 56 5.0 S 15 22 8 12 1017.4 1017.4 0.0
15/03:00pm 20.9 18.5 11.3 54 5.3 S 15 22 8 12 1018.0 1018.0 0.0
15/02:30pm 21.0 19.4 11.4 54 5.3 SSE 11 19 6 10 1018.3 1018.3 0.0
15/02:00pm 20.9 18.9 11.5 55 5.2 SE 13 19 7 10 1018.5 1018.5 0.0
15/01:30pm 20.0 17.9 11.0 56 4.9 SE 13 20 7 11 1018.6 1018.6 0.0
15/01:00pm 20.0 17.5 11.0 56 4.9 SE 15 20 8 11 1019.0 1019.0 0.0
15/12:30pm 20.1 17.5 10.7 54 5.1 SE 15 20 8 11 1019.2 1019.2 0.0
15/12:00pm 19.9 18.1 10.7 55 5.0 SE 11 20 6 11 1019.5 1019.5 0.0
15/11:30am 19.9 18.1 10.7 55 5.0 SSE 11 20 6 11 1019.5 1019.5 0.0
15/11:00am 19.8 18.0 11.0 57 4.8 SE 11 17 6 9 1020.0 1019.9 0.0
15/10:30am 19.6 18.1 10.5 55 4.9 SE 9 17 5 9 1020.2 1020.1 0.0
15/10:00am 18.8 17.3 10.6 59 4.4 SE 9 17 5 9 1020.5 1020.4 0.0
15/09:30am 18.7 17.8 10.5 59 4.4 SE 6 9 3 5 1020.5 1020.4 0.0
15/09:00am 18.7 16.7 10.3 58 4.5 ESE 11 15 6 8 1020.4 1020.3 0.0
15/08:30am 17.9 16.1 10.8 63 3.8 ESE 11 19 6 10 1020.4 1020.3 0.0
15/08:00am 17.6 15.8 10.9 65 3.6 ESE 11 15 6 8 1020.0 1019.9 0.0
15/07:30am 17.3 15.8 10.5 64 3.6 ESE 9 15 5 8 1019.6 1019.6 0.0
15/07:00am 17.1 14.9 10.7 66 3.4 ESE 13 19 7 10 1019.2 1019.2 0.0
15/06:30am 17.1 14.8 10.5 65 3.5 ESE 13 19 7 10 1019.2 1019.2 0.0
15/06:00am 16.9 15.4 10.5 66 3.4 E 9 13 5 7 1018.9 1018.9 0.0
15/05:30am 16.9 14.6 10.3 65 3.5 ESE 13 17 7 9 1018.6 1018.6 0.0
15/05:00am 16.9 14.7 10.7 67 3.3 ESE 13 19 7 10 1018.0 1018.0 0.0
15/04:30am 17.1 14.6 11.2 68 3.2 SSE 15 22 8 12 1018.0 1018.0 0.0
15/04:00am 17.1 15.0 11.2 68 3.2 SE 13 22 7 12 1018.0 1018.0 0.0
15/03:30am 17.2 14.4 11.5 69 3.1 SSE 17 24 9 13 1017.8 1017.8 0.0
15/03:00am 17.1 14.6 10.9 67 3.3 SE 15 24 8 13 1018.0 1018.0 0.0
15/02:30am 17.0 14.6 10.2 64 3.6 SSE 13 20 7 11 1018.2 1018.2 0.0
15/02:00am 17.1 14.1 10.5 65 3.5 SSE 17 24 9 13 1018.3 1018.3 0.0
15/01:30am 17.4 14.9 11.1 66 3.4 SSE 15 22 8 12 1018.4 1018.4 0.0
15/01:00am 17.3 13.8 10.3 63 3.7 SSE 19 28 10 15 1018.5 1018.5 0.0
15/12:30am 17.4 14.0 10.4 63 3.7 S 19 26 10 14 1018.6 1018.6 0.0
15/12:00am 17.6 14.1 10.9 65 3.6 SSE 20 32 11 17 1018.6 1018.6 0.0
 
Date/Time
CDT
Temp
°C
App
Temp
°C
Dew
Point
°C
Rel
Hum
%
Delta-T
°C
Wind Press
QNH
hPa
Press
MSL
hPa
Rain since
9am
mm
Dir  Spd
km/h
Gust
km/h
Spd
kts
Gust
kts
14/11:30pm 17.6 13.8 11.1 65 3.5 S 22 32 12 17 1018.8 1018.8 0.0
14/11:00pm 17.8 14.5 10.9 64 3.7 S 19 26 10 14 1018.8 1018.8 0.0
14/10:30pm 17.9 14.2 11.5 66 3.5 S 22 30 12 16 1018.8 1018.8 0.0
14/10:00pm 17.8 14.1 10.1 60 4.1 S 20 28 11 15 1018.8 1018.8 0.0
14/09:30pm 18.0 14.4 10.7 62 3.9 S 20 28 11 15 1018.5 1018.5 0.0
14/09:00pm 18.3 14.6 11.5 64 3.7 S 22 30 12 16 1018.4 1018.4 0.0
14/08:30pm 18.4 15.1 11.6 64 3.7 S 20 28 11 15 1018.2 1018.2 0.0
14/08:00pm 18.6 15.0 11.7 64 3.8 S 22 28 12 15 1017.9 1017.9 0.0
14/07:30pm 18.8 15.0 11.1 61 4.2 S 22 30 12 16 1017.5 1017.5 0.0
14/07:00pm 19.0 15.0 11.9 63 3.9 SSE 24 32 13 17 1017.4 1017.4 0.0
14/06:30pm 19.6 15.8 11.0 57 4.7 SSE 22 28 12 15 1017.3 1017.3 0.0
14/06:00pm 20.0 16.5 11.0 56 4.9 SSE 20 30 11 16 1017.3 1017.3 0.0
14/05:30pm 20.6 17.5 11.6 56 5.0 SW 19 28 10 15 1017.3 1017.3 0.0
14/05:00pm 21.1 18.1 10.6 51 5.7 WSW 17 26 9 14 1017.4 1017.4 0.0
14/04:30pm 21.1 17.5 10.4 50 5.8 SSW 20 28 11 15 1017.4 1017.4 0.0
14/04:00pm 21.2 17.2 10.6 50 5.8 SSW 22 32 12 17 1017.4 1017.4 0.0
14/03:30pm 22.1 19.8 8.9 43 7.0 SSW 11 20 6 11 1017.4 1017.4 0.0

Other Formats:

Comma delimited format used in spreadsheet applications
http://www.bom.gov.au/fwo/IDS60801/IDS60801.94809.axf

JavaScript Object Notation format (JSON) in row-major order
http://www.bom.gov.au/fwo/IDS60801/IDS60801.94809.json